createdAt,value
2018-12-25T00:00:43.366Z,5.24
2018-12-25T00:01:43.286Z,5.19
2018-12-25T00:02:43.314Z,5.27
2018-12-25T00:03:43.349Z,5.29
2018-12-25T00:04:43.372Z,5.24
2018-12-25T00:05:43.399Z,5.26
2018-12-25T00:06:43.429Z,5.23
2018-12-25T00:07:43.456Z,5.22
2018-12-25T00:08:43.486Z,5.23
2018-12-25T00:09:43.513Z,5.19
2018-12-25T00:10:43.542Z,5.23
2018-12-25T00:11:43.572Z,5.27
2018-12-25T00:12:43.600Z,5.22
2018-12-25T00:13:43.627Z,5.22
2018-12-25T00:14:43.656Z,5.32
2018-12-25T00:15:43.684Z,5.24
2018-12-25T00:16:43.712Z,5.23
2018-12-25T00:17:43.740Z,5.26
2018-12-25T00:18:43.770Z,5.20
2018-12-25T00:19:43.796Z,5.24
2018-12-25T00:20:43.827Z,5.24
2018-12-25T00:21:43.853Z,5.26
2018-12-25T00:22:43.882Z,5.27
2018-12-25T00:23:43.909Z,5.26
2018-12-25T00:24:43.945Z,5.27
2018-12-25T00:25:43.970Z,5.32
2018-12-25T00:26:43.997Z,5.33
2018-12-25T00:27:44.024Z,5.38
2018-12-25T00:28:44.053Z,5.38
2018-12-25T00:29:44.081Z,5.44
2018-12-25T00:30:44.110Z,5.38
2018-12-25T00:31:44.137Z,5.40
2018-12-25T00:32:44.166Z,5.41
2018-12-25T00:33:44.194Z,5.41
2018-12-25T00:34:44.221Z,5.48
2018-12-25T00:35:44.250Z,5.51
2018-12-25T00:36:44.319Z,5.47
2018-12-25T00:37:44.310Z,5.47
2018-12-25T00:38:44.335Z,5.47
2018-12-25T00:39:44.364Z,5.51
2018-12-25T00:40:44.393Z,5.49
2018-12-25T00:41:44.421Z,5.42
2018-12-25T00:42:44.449Z,5.47
2018-12-25T00:43:44.479Z,5.42
2018-12-25T00:44:44.507Z,5.48
2018-12-25T00:45:44.534Z,5.45
2018-12-25T00:46:44.651Z,5.47
2018-12-25T00:47:44.591Z,5.48
2018-12-25T00:48:44.620Z,5.48
2018-12-25T00:49:44.648Z,5.38
2018-12-25T00:50:44.677Z,5.42
2018-12-25T00:51:44.704Z,5.40
2018-12-25T00:52:44.735Z,5.47
2018-12-25T00:53:44.763Z,5.56
2018-12-25T00:54:44.791Z,5.41
2018-12-25T00:55:44.820Z,5.52
2018-12-25T00:56:44.850Z,5.51
2018-12-25T00:57:44.875Z,5.56
2018-12-25T00:58:44.905Z,5.55
2018-12-25T00:59:44.934Z,5.49
2018-12-25T01:00:44.962Z,5.55
2018-12-25T01:01:44.991Z,5.56
2018-12-25T01:02:45.022Z,5.56
2018-12-25T01:03:45.063Z,5.52
2018-12-25T01:04:45.077Z,5.48
2018-12-25T01:05:45.104Z,5.58
2018-12-25T01:06:45.142Z,5.60
2018-12-25T01:07:45.161Z,5.55
2018-12-25T01:08:45.190Z,5.52
2018-12-25T01:09:45.218Z,5.59
2018-12-25T01:10:45.274Z,5.63
2018-12-25T01:11:45.278Z,5.52
2018-12-25T01:12:45.306Z,5.56
2018-12-25T01:13:45.332Z,5.60
2018-12-25T01:14:45.361Z,5.63
2018-12-25T01:15:45.395Z,5.60
2018-12-25T01:16:45.420Z,5.59
2018-12-25T01:17:45.446Z,5.62
2018-12-25T01:18:45.476Z,5.60
2018-12-25T01:19:45.507Z,5.58
2018-12-25T01:20:45.537Z,5.55
2018-12-25T01:21:45.563Z,5.65
2018-12-25T01:22:45.591Z,5.63
2018-12-25T01:23:45.620Z,5.69
2018-12-25T01:24:45.648Z,5.65
2018-12-25T01:25:45.676Z,5.69
2018-12-25T01:26:45.706Z,5.74
2018-12-25T01:27:45.734Z,5.78
2018-12-25T01:28:45.763Z,5.69
2018-12-25T01:29:45.792Z,5.74
2018-12-25T01:30:45.820Z,5.73
2018-12-25T01:31:45.849Z,5.80
2018-12-25T01:32:45.876Z,5.78
2018-12-25T01:33:45.905Z,5.81
2018-12-25T01:34:45.934Z,5.90
2018-12-25T01:35:45.964Z,5.85
2018-12-25T01:36:45.995Z,5.83
2018-12-25T01:37:46.021Z,5.77
2018-12-25T01:38:46.051Z,5.75
2018-12-25T01:39:46.078Z,5.83
2018-12-25T01:40:46.107Z,5.85
2018-12-25T01:41:46.136Z,5.80
2018-12-25T01:42:46.163Z,5.69
2018-12-25T01:43:46.192Z,5.80
2018-12-25T01:44:46.221Z,5.77
2018-12-25T01:45:46.251Z,5.77
2018-12-25T01:46:46.278Z,5.83
2018-12-25T01:47:46.308Z,5.83
2018-12-25T01:48:46.338Z,5.85
2018-12-25T01:49:46.364Z,5.83
2018-12-25T01:50:46.397Z,5.88
2018-12-25T01:51:46.423Z,5.87
2018-12-25T01:52:46.453Z,5.85
2018-12-25T01:53:46.482Z,5.74
2018-12-25T01:54:46.509Z,5.87
2018-12-25T01:55:46.538Z,5.75
2018-12-25T01:56:46.567Z,5.80
2018-12-25T01:57:46.595Z,5.74
2018-12-25T01:58:46.624Z,5.74
2018-12-25T01:59:46.653Z,5.66
2018-12-25T02:00:46.683Z,5.65
2018-12-25T02:01:46.711Z,5.77
2018-12-25T02:02:46.739Z,5.69
2018-12-25T02:03:46.769Z,5.70
2018-12-25T02:04:46.796Z,5.66
2018-12-25T02:05:46.825Z,5.70
2018-12-25T02:06:46.853Z,5.69
2018-12-25T02:07:46.889Z,5.77
2018-12-25T02:08:46.912Z,5.69
2018-12-25T02:09:46.942Z,5.62
2018-12-25T02:10:46.969Z,5.66
2018-12-25T02:11:46.998Z,5.58
2018-12-25T02:12:47.027Z,5.66
2018-12-25T02:13:47.055Z,5.59
2018-12-25T02:14:47.085Z,5.60
2018-12-25T02:15:47.113Z,5.52
2018-12-25T02:16:47.145Z,5.63
2018-12-25T02:17:47.169Z,5.69
2018-12-25T02:18:47.199Z,5.62
2018-12-25T02:19:47.227Z,5.63
2018-12-25T02:20:47.256Z,5.67
2018-12-25T02:21:47.284Z,5.73
2018-12-25T02:22:47.316Z,5.74
2018-12-25T02:23:47.343Z,5.77
2018-12-25T02:24:47.373Z,5.78
2018-12-25T02:25:47.400Z,5.67
2018-12-25T02:26:47.429Z,5.69
2018-12-25T02:27:47.458Z,5.77
2018-12-25T02:28:47.486Z,5.70
2018-12-25T02:29:47.515Z,5.67
2018-12-25T02:30:47.544Z,5.60
2018-12-25T02:31:47.572Z,5.65
2018-12-25T02:32:47.601Z,5.63
2018-12-25T02:33:47.630Z,5.60
2018-12-25T02:34:47.659Z,5.62
2018-12-25T02:35:47.688Z,5.66
2018-12-25T02:36:47.717Z,5.66
2018-12-25T02:37:47.745Z,5.69
2018-12-25T02:38:47.776Z,5.66
2018-12-25T02:39:47.804Z,5.63
2018-12-25T02:40:47.831Z,5.73
2018-12-25T02:41:47.859Z,5.65
2018-12-25T02:42:47.889Z,5.67
2018-12-25T02:43:47.918Z,5.78
2018-12-25T02:44:47.947Z,5.65
2018-12-25T02:45:47.978Z,5.69
2018-12-25T02:46:48.005Z,5.74
2018-12-25T02:47:48.034Z,5.74
2018-12-25T02:48:48.063Z,5.74
2018-12-25T02:49:50.443Z,5.69
2018-12-25T02:50:48.119Z,5.73
2018-12-25T02:51:48.147Z,5.69
2018-12-25T02:52:48.178Z,5.77
2018-12-25T02:53:48.205Z,5.74
2018-12-25T02:54:48.239Z,5.83
2018-12-25T02:55:48.263Z,5.80
2018-12-25T02:56:48.294Z,5.83
2018-12-25T02:57:48.320Z,5.78
2018-12-25T02:58:48.349Z,5.85
2018-12-25T02:59:48.380Z,5.83
2018-12-25T03:00:48.406Z,5.87
2018-12-25T03:01:48.433Z,5.90
2018-12-25T03:02:48.485Z,5.90
2018-12-25T03:03:48.492Z,5.81
2018-12-25T03:04:48.520Z,5.84
2018-12-25T03:05:48.550Z,5.96
2018-12-25T03:06:48.578Z,5.85
2018-12-25T03:07:48.608Z,5.87
2018-12-25T03:08:48.636Z,5.92
2018-12-25T03:09:48.664Z,5.84
2018-12-25T03:10:48.698Z,5.93
2018-12-25T03:11:48.725Z,5.88
2018-12-25T03:12:48.752Z,5.92
2018-12-25T03:13:48.782Z,5.99
2018-12-25T03:14:48.857Z,5.99
2018-12-25T03:15:48.838Z,5.95
2018-12-25T03:16:48.865Z,5.93
2018-12-25T03:17:48.896Z,5.90
2018-12-25T03:18:48.924Z,5.96
2018-12-25T03:19:48.952Z,5.99
2018-12-25T03:20:48.981Z,5.98
2018-12-25T03:21:49.010Z,6.06
2018-12-25T03:22:49.039Z,6.03
2018-12-25T03:23:49.074Z,5.98
2018-12-25T03:24:49.104Z,5.98
2018-12-25T03:25:49.130Z,5.99
2018-12-25T03:26:49.155Z,6.03
2018-12-25T03:27:49.185Z,5.98
2018-12-25T03:28:49.213Z,6.02
2018-12-25T03:29:49.241Z,6.02
2018-12-25T03:30:49.271Z,6.03
2018-12-25T03:31:49.299Z,6.06
2018-12-25T03:32:49.330Z,6.05
2018-12-25T03:33:49.356Z,6.02
2018-12-25T03:34:49.386Z,5.98
2018-12-25T03:35:49.415Z,6.01
2018-12-25T03:36:49.579Z,5.99
2018-12-25T03:37:49.470Z,5.92
2018-12-25T03:38:49.501Z,5.96
2018-12-25T03:39:49.529Z,5.93
2018-12-25T03:40:49.590Z,6.01
2018-12-25T03:41:49.589Z,6.03
2018-12-25T03:42:49.615Z,6.05
2018-12-25T03:43:49.644Z,5.98
2018-12-25T03:44:49.675Z,5.98
2018-12-25T03:45:49.703Z,5.93
2018-12-25T03:46:49.732Z,5.93
2018-12-25T03:47:49.762Z,5.93
2018-12-25T03:48:49.792Z,5.88
2018-12-25T03:49:49.818Z,5.98
2018-12-25T03:50:49.848Z,5.81
2018-12-25T03:51:49.878Z,5.88
2018-12-25T03:52:49.909Z,5.83
2018-12-25T03:53:49.934Z,5.96
2018-12-25T03:54:49.967Z,5.95
2018-12-25T03:55:49.992Z,5.88
2018-12-25T03:56:50.023Z,6.01
2018-12-25T03:57:50.050Z,5.96
2018-12-25T03:58:50.080Z,6.06
2018-12-25T03:59:50.111Z,6.03
2018-12-25T04:00:50.137Z,6.08
2018-12-25T04:01:50.165Z,6.02
2018-12-25T04:02:50.194Z,6.10
2018-12-25T04:03:50.224Z,5.96
2018-12-25T04:04:50.254Z,6.03
2018-12-25T04:05:50.281Z,5.96
2018-12-25T04:06:50.311Z,5.95
2018-12-25T04:07:50.339Z,6.03
2018-12-25T04:08:50.371Z,6.02
2018-12-25T04:09:50.427Z,5.96
2018-12-25T04:10:50.426Z,5.93
2018-12-25T04:11:50.456Z,5.93
2018-12-25T04:12:50.485Z,5.88
2018-12-25T04:13:50.513Z,5.84
2018-12-25T04:14:50.542Z,5.90
2018-12-25T04:15:50.574Z,5.85
2018-12-25T04:16:50.602Z,5.90
2018-12-25T04:17:50.630Z,5.93
2018-12-25T04:18:50.658Z,5.96
2018-12-25T04:19:50.687Z,5.90
2018-12-25T04:20:50.717Z,5.93
2018-12-25T04:21:50.752Z,5.85
2018-12-25T04:22:50.773Z,6.01
2018-12-25T04:23:50.803Z,5.95
2018-12-25T04:24:50.832Z,5.96
2018-12-25T04:25:50.863Z,6.01
2018-12-25T04:26:50.891Z,6.02
2018-12-25T04:27:50.918Z,5.98
2018-12-25T04:28:50.949Z,6.05
2018-12-25T04:29:50.981Z,6.06
2018-12-25T04:30:51.006Z,6.02
2018-12-25T04:31:51.034Z,6.06
2018-12-25T04:32:51.065Z,6.03
2018-12-25T04:33:51.093Z,5.93
2018-12-25T04:34:51.129Z,5.92
2018-12-25T04:35:51.288Z,5.98
2018-12-25T04:36:51.179Z,5.95
2018-12-25T04:37:51.209Z,5.85
2018-12-25T04:38:51.240Z,5.92
2018-12-25T04:39:51.267Z,5.83
2018-12-25T04:40:51.298Z,5.92
2018-12-25T04:41:51.322Z,5.95
2018-12-25T04:42:51.352Z,5.84
2018-12-25T04:43:51.381Z,5.87
2018-12-25T04:44:51.410Z,5.90
2018-12-25T04:45:51.439Z,5.87
2018-12-25T04:46:51.471Z,5.90
2018-12-25T04:47:51.496Z,5.88
2018-12-25T04:48:51.526Z,5.84
2018-12-25T04:49:51.555Z,5.84
2018-12-25T04:50:51.584Z,5.90
2018-12-25T04:51:51.614Z,5.88
2018-12-25T04:52:51.640Z,5.81
2018-12-25T04:53:51.669Z,5.90
2018-12-25T04:54:51.699Z,5.88
2018-12-25T04:55:51.726Z,5.93
2018-12-25T04:56:51.756Z,5.95
2018-12-25T04:57:51.783Z,5.96
2018-12-25T04:58:51.813Z,5.90
2018-12-25T04:59:51.845Z,5.93
2018-12-25T05:00:51.872Z,6.03
2018-12-25T05:01:51.899Z,6.01
2018-12-25T05:02:51.930Z,5.99
2018-12-25T05:03:51.957Z,5.98
2018-12-25T05:04:51.988Z,6.05
2018-12-25T05:05:52.016Z,5.98
2018-12-25T05:06:52.045Z,5.98
2018-12-25T05:07:52.074Z,5.96
2018-12-25T05:08:52.102Z,5.95
2018-12-25T05:09:52.129Z,5.93
2018-12-25T05:10:52.160Z,5.88
2018-12-25T05:11:52.189Z,5.87
2018-12-25T05:12:52.227Z,5.90
2018-12-25T05:13:52.247Z,5.96
2018-12-25T05:14:52.274Z,5.99
2018-12-25T05:15:52.302Z,5.93
2018-12-25T05:16:52.332Z,5.98
2018-12-25T05:17:52.361Z,5.92
2018-12-25T05:18:52.389Z,5.93
2018-12-25T05:19:52.417Z,5.92
2018-12-25T05:20:52.447Z,5.93
2018-12-25T05:21:52.475Z,5.99
2018-12-25T05:22:52.505Z,5.99
2018-12-25T05:23:52.533Z,5.85
2018-12-25T05:24:52.561Z,5.87
2018-12-25T05:25:52.591Z,5.84
2018-12-25T05:26:52.623Z,5.87
2018-12-25T05:27:52.649Z,5.95
2018-12-25T05:28:52.677Z,5.85
2018-12-25T05:29:52.705Z,5.85
2018-12-25T05:30:52.734Z,5.88
2018-12-25T05:31:52.763Z,5.84
2018-12-25T05:32:52.792Z,5.85
2018-12-25T05:33:52.820Z,5.84
2018-12-25T05:34:52.850Z,5.73
2018-12-25T05:35:52.878Z,5.67
2018-12-25T05:36:52.918Z,5.69
2018-12-25T05:37:52.935Z,5.74
2018-12-25T05:38:52.965Z,5.69
2018-12-25T05:39:52.993Z,5.80
2018-12-25T05:40:53.021Z,5.65
2018-12-25T05:41:53.051Z,5.73
2018-12-25T05:42:53.083Z,5.73
2018-12-25T05:43:53.109Z,5.69
2018-12-25T05:44:53.137Z,5.67
2018-12-25T05:45:53.165Z,5.69
2018-12-25T05:46:53.194Z,5.69
2018-12-25T05:47:53.227Z,5.70
2018-12-25T05:48:53.252Z,5.77
2018-12-25T05:49:53.330Z,5.73
2018-12-25T05:50:53.308Z,5.77
2018-12-25T05:51:53.338Z,5.78
2018-12-25T05:52:53.366Z,5.73
2018-12-25T05:53:53.400Z,5.77
2018-12-25T05:54:53.423Z,5.81
2018-12-25T05:55:53.452Z,5.85
2018-12-25T05:56:53.481Z,5.87
2018-12-25T05:57:53.509Z,5.87
2018-12-25T05:58:53.548Z,5.83
2018-12-25T05:59:53.571Z,5.92
2018-12-25T06:00:53.599Z,5.85
2018-12-25T06:01:53.624Z,5.85
2018-12-25T06:02:53.653Z,5.83
2018-12-25T06:03:53.681Z,5.88
2018-12-25T06:04:53.710Z,5.88
2018-12-25T06:05:53.739Z,5.88
2018-12-25T06:06:53.768Z,5.88
2018-12-25T06:07:53.798Z,5.77
2018-12-25T06:08:53.826Z,5.77
2018-12-25T06:09:53.853Z,5.77
2018-12-25T06:10:53.884Z,5.81
2018-12-25T06:11:53.913Z,5.83
2018-12-25T06:12:53.940Z,5.80
2018-12-25T06:13:53.975Z,5.80
2018-12-25T06:14:53.997Z,5.83
2018-12-25T06:15:54.030Z,5.77
2018-12-25T06:16:54.056Z,5.74
2018-12-25T06:17:54.083Z,5.78
2018-12-25T06:18:54.111Z,5.77
2018-12-25T06:19:54.141Z,5.69
2018-12-25T06:20:55.189Z,5.65
2018-12-25T06:21:54.212Z,5.75
2018-12-25T06:22:54.231Z,5.73
2018-12-25T06:23:54.256Z,5.78
2018-12-25T06:24:54.285Z,5.78
2018-12-25T06:25:54.313Z,5.74
2018-12-25T06:26:54.343Z,5.80
2018-12-25T06:27:54.370Z,5.78
2018-12-25T06:28:54.399Z,5.77
2018-12-25T06:29:54.430Z,5.77
2018-12-25T06:30:54.456Z,5.83
2018-12-25T06:31:54.485Z,5.85
2018-12-25T06:32:54.514Z,5.83
2018-12-25T06:33:54.542Z,5.83
2018-12-25T06:34:54.572Z,5.83
2018-12-25T06:35:54.601Z,5.84
2018-12-25T06:36:54.630Z,5.84
2018-12-25T06:37:54.657Z,5.78
2018-12-25T06:38:54.687Z,5.87
2018-12-25T06:39:54.716Z,5.84
2018-12-25T06:40:54.744Z,5.85
2018-12-25T06:41:54.772Z,5.84
2018-12-25T06:42:54.800Z,5.84
2018-12-25T06:43:54.831Z,5.87
2018-12-25T06:44:54.858Z,5.85
2018-12-25T06:45:54.886Z,5.78
2018-12-25T06:46:54.917Z,5.80
2018-12-25T06:47:54.946Z,5.69
2018-12-25T06:48:54.974Z,5.69
2018-12-25T06:49:55.002Z,5.70
2018-12-25T06:51:03.551Z,5.80
2018-12-25T06:51:55.060Z,5.77
2018-12-25T06:52:55.089Z,5.69
2018-12-25T06:53:55.118Z,5.67
2018-12-25T06:54:55.145Z,5.69
2018-12-25T06:55:55.175Z,5.67
2018-12-25T06:56:55.203Z,5.74
2018-12-25T06:57:55.232Z,5.73
2018-12-25T06:58:55.263Z,5.77
2018-12-25T06:59:55.290Z,5.75
2018-12-25T07:00:55.319Z,5.75
2018-12-25T07:01:55.345Z,5.77
2018-12-25T07:02:55.375Z,5.84
2018-12-25T07:03:55.402Z,5.74
2018-12-25T07:04:55.432Z,5.81
2018-12-25T07:05:55.460Z,5.84
2018-12-25T07:06:55.488Z,5.83
2018-12-25T07:07:55.520Z,5.84
2018-12-25T07:08:55.547Z,5.80
2018-12-25T07:09:55.575Z,5.77
2018-12-25T07:10:55.605Z,5.80
2018-12-25T07:11:55.631Z,5.78
2018-12-25T07:12:55.660Z,5.77
2018-12-25T07:13:55.690Z,5.69
2018-12-25T07:14:55.717Z,5.69
2018-12-25T07:15:55.748Z,5.77
2018-12-25T07:16:55.777Z,5.80
2018-12-25T07:17:55.802Z,5.83
2018-12-25T07:18:55.830Z,5.77
2018-12-25T07:19:55.860Z,5.73
2018-12-25T07:20:55.889Z,5.78
2018-12-25T07:21:55.919Z,5.75
2018-12-25T07:22:55.946Z,5.69
2018-12-25T07:23:55.975Z,5.73
2018-12-25T07:24:56.003Z,5.69
2018-12-25T07:25:56.031Z,5.78
2018-12-25T07:26:56.059Z,5.69
2018-12-25T07:27:56.088Z,5.69
2018-12-25T07:28:56.117Z,5.74
2018-12-25T07:29:56.145Z,5.65
2018-12-25T07:30:56.174Z,5.70
2018-12-25T07:31:56.206Z,5.66
2018-12-25T07:32:56.231Z,5.62
2018-12-25T07:33:56.258Z,5.62
2018-12-25T07:34:56.286Z,5.67
2018-12-25T07:35:56.316Z,5.70
2018-12-25T07:36:56.346Z,5.67
2018-12-25T07:37:56.373Z,5.73
2018-12-25T07:38:56.400Z,5.67
2018-12-25T07:39:56.431Z,5.63
2018-12-25T07:40:56.458Z,5.73
2018-12-25T07:41:56.485Z,5.69
2018-12-25T07:42:56.516Z,5.70
2018-12-25T07:43:56.543Z,5.67
2018-12-25T07:44:56.573Z,5.63
2018-12-25T07:45:56.601Z,5.60
2018-12-25T07:46:56.632Z,5.59
2018-12-25T07:47:56.657Z,5.63
2018-12-25T07:48:56.687Z,5.63
2018-12-25T07:49:56.718Z,5.66
2018-12-25T07:50:56.743Z,5.59
2018-12-25T07:51:56.772Z,5.69
2018-12-25T07:52:56.803Z,5.65
2018-12-25T07:53:56.829Z,5.67
2018-12-25T07:54:56.856Z,5.66
2018-12-25T07:55:56.886Z,5.63
2018-12-25T07:56:56.915Z,5.60
2018-12-25T07:57:56.949Z,5.67
2018-12-25T07:58:56.971Z,5.67
2018-12-25T07:59:57.000Z,5.70
2018-12-25T08:00:57.027Z,5.70
2018-12-25T08:01:57.056Z,5.78
2018-12-25T08:02:57.085Z,5.70
2018-12-25T08:03:57.113Z,5.69
2018-12-25T08:04:57.142Z,5.77
2018-12-25T08:05:57.169Z,5.69
2018-12-25T08:06:57.200Z,5.70
2018-12-25T08:07:57.227Z,5.75
2018-12-25T08:08:57.257Z,5.74
2018-12-25T08:09:57.286Z,5.83
2018-12-25T08:10:57.313Z,5.74
2018-12-25T08:11:57.342Z,5.74
2018-12-25T08:12:57.372Z,5.85
2018-12-25T08:13:57.399Z,5.92
2018-12-25T08:14:57.431Z,5.87
2018-12-25T08:15:57.456Z,5.83
2018-12-25T08:16:57.485Z,5.84
2018-12-25T08:17:57.513Z,5.85
2018-12-25T08:18:57.543Z,5.85
2018-12-25T08:19:57.571Z,5.83
2018-12-25T08:20:57.599Z,5.85
2018-12-25T08:21:57.627Z,5.87
2018-12-25T08:23:02.496Z,5.93
2018-12-25T08:23:57.689Z,5.96
2018-12-25T08:24:57.715Z,5.93
2018-12-25T08:25:57.742Z,5.93
2018-12-25T08:26:57.772Z,5.96
2018-12-25T08:27:57.800Z,5.96
2018-12-25T08:28:57.844Z,6.05
2018-12-25T08:29:57.860Z,6.06
2018-12-25T08:30:57.885Z,5.98
2018-12-25T08:31:57.915Z,5.99
2018-12-25T08:32:57.944Z,5.96
2018-12-25T08:33:57.971Z,5.95
2018-12-25T08:34:58.000Z,6.06
2018-12-25T08:35:58.031Z,6.05
2018-12-25T08:36:58.060Z,5.96
2018-12-25T08:37:58.088Z,6.08
2018-12-25T08:38:58.118Z,6.03
2018-12-25T08:39:58.150Z,6.02
2018-12-25T08:40:58.174Z,6.06
2018-12-25T08:41:58.202Z,5.99
2018-12-25T08:42:58.232Z,6.01
2018-12-25T08:43:58.260Z,6.11
2018-12-25T08:44:58.290Z,5.99
2018-12-25T08:45:58.317Z,6.01
2018-12-25T08:47:02.518Z,6.11
2018-12-25T08:47:58.378Z,6.11
2018-12-25T08:48:58.406Z,6.11
2018-12-25T08:49:58.433Z,6.05
2018-12-25T08:50:58.463Z,6.05
2018-12-25T08:51:58.490Z,6.17
2018-12-25T08:52:58.520Z,6.14
2018-12-25T08:53:58.547Z,6.08
2018-12-25T08:54:58.577Z,6.14
2018-12-25T08:55:58.605Z,6.05
2018-12-25T08:56:58.635Z,6.05
2018-12-25T08:57:58.667Z,6.05
2018-12-25T08:58:58.692Z,6.19
2018-12-25T08:59:58.721Z,6.08
2018-12-25T09:00:58.750Z,6.14
2018-12-25T09:01:58.779Z,6.16
2018-12-25T09:02:58.809Z,6.21
2018-12-25T09:03:58.837Z,6.19
2018-12-25T09:04:58.865Z,6.21
2018-12-25T09:05:58.895Z,6.24
2018-12-25T09:06:58.922Z,6.25
2018-12-25T09:07:58.952Z,6.24
2018-12-25T09:08:58.981Z,6.24
2018-12-25T09:09:59.008Z,6.25
2018-12-25T09:10:59.040Z,6.33
2018-12-25T09:11:59.068Z,6.30
2018-12-25T09:12:59.098Z,6.25
2018-12-25T09:13:59.124Z,6.33
2018-12-25T09:14:59.155Z,6.25
2018-12-25T09:15:59.183Z,6.30
2018-12-25T09:16:59.212Z,6.27
2018-12-25T09:17:59.240Z,6.35
2018-12-25T09:18:59.269Z,6.42
2018-12-25T09:19:59.300Z,6.36
2018-12-25T09:20:59.335Z,6.35
2018-12-25T09:21:59.357Z,6.43
2018-12-25T09:22:59.385Z,6.42
2018-12-25T09:23:59.414Z,6.46
2018-12-25T09:24:59.445Z,6.46
2018-12-25T09:25:59.472Z,6.40
2018-12-25T09:26:59.501Z,6.46
2018-12-25T09:27:59.537Z,6.40
2018-12-25T09:28:59.560Z,6.43
2018-12-25T09:29:59.588Z,6.43
2018-12-25T09:30:59.617Z,6.39
2018-12-25T09:31:59.650Z,6.38
2018-12-25T09:32:59.676Z,6.42
2018-12-25T09:33:59.704Z,6.46
2018-12-25T09:34:59.733Z,6.54
2018-12-25T09:35:59.763Z,6.58
2018-12-25T09:36:59.792Z,6.60
2018-12-25T09:37:59.821Z,6.60
2018-12-25T09:38:59.849Z,6.54
2018-12-25T09:39:59.879Z,6.58
2018-12-25T09:40:59.909Z,6.57
2018-12-25T09:41:59.940Z,6.57
2018-12-25T09:42:59.967Z,6.57
2018-12-25T09:43:59.995Z,6.54
2018-12-25T09:45:00.024Z,6.57
2018-12-25T09:46:00.052Z,6.55
2018-12-25T09:47:00.084Z,6.63
2018-12-25T09:48:00.110Z,6.65
2018-12-25T09:49:00.139Z,6.65
2018-12-25T09:50:00.171Z,6.63
2018-12-25T09:51:00.199Z,6.68
2018-12-25T09:52:00.228Z,6.65
2018-12-25T09:53:00.258Z,6.73
2018-12-25T09:54:00.287Z,6.75
2018-12-25T09:55:00.315Z,6.75
2018-12-25T09:56:00.344Z,6.73
2018-12-25T09:57:00.372Z,6.78
2018-12-25T09:58:00.401Z,6.76
2018-12-25T09:59:00.431Z,6.65
2018-12-25T10:00:00.460Z,6.71
2018-12-25T10:01:00.501Z,6.76
2018-12-25T10:02:00.524Z,6.79
2018-12-25T10:03:00.548Z,6.73
2018-12-25T10:04:00.577Z,6.72
2018-12-25T10:05:00.607Z,6.72
2018-12-25T10:06:00.633Z,6.72
2018-12-25T10:07:00.666Z,6.71
2018-12-25T10:08:00.694Z,6.75
2018-12-25T10:09:00.804Z,6.76
2018-12-25T10:10:00.753Z,6.76
2018-12-25T10:11:00.780Z,6.76
2018-12-25T10:12:00.812Z,6.81
2018-12-25T10:13:00.871Z,6.75
2018-12-25T10:14:00.867Z,6.75
2018-12-25T10:15:00.899Z,6.82
2018-12-25T10:16:00.928Z,6.82
2018-12-25T10:17:00.957Z,6.89
2018-12-25T10:18:00.984Z,6.96
2018-12-25T10:19:01.015Z,6.86
2018-12-25T10:20:01.050Z,6.91
2018-12-25T10:21:01.074Z,6.87
2018-12-25T10:22:03.243Z,6.87
2018-12-25T10:23:01.132Z,6.81
2018-12-25T10:24:01.161Z,6.93
2018-12-25T10:25:01.192Z,6.87
2018-12-25T10:26:01.221Z,6.96
2018-12-25T10:27:01.250Z,6.87
2018-12-25T10:28:01.281Z,6.87
2018-12-25T10:29:01.308Z,6.83
2018-12-25T10:30:01.338Z,6.94
2018-12-25T10:31:01.366Z,6.91
2018-12-25T10:32:01.395Z,6.94
2018-12-25T10:33:01.426Z,6.91
2018-12-25T10:34:01.454Z,6.86
2018-12-25T10:35:01.483Z,6.82
2018-12-25T10:36:01.513Z,7.04
2018-12-25T10:37:01.543Z,6.99
2018-12-25T10:38:01.575Z,7.07
2018-12-25T10:39:01.604Z,7.04
2018-12-25T10:40:01.630Z,7.05
2018-12-25T10:41:01.666Z,7.07
2018-12-25T10:42:01.687Z,7.01
2018-12-25T10:43:01.720Z,7.05
2018-12-25T10:44:01.747Z,7.07
2018-12-25T10:45:01.779Z,7.05
2018-12-25T10:46:01.806Z,7.09
2018-12-25T10:47:01.835Z,7.11
2018-12-25T10:48:01.866Z,7.12
2018-12-25T10:49:01.895Z,7.08
2018-12-25T10:50:01.923Z,7.08
2018-12-25T10:51:01.953Z,7.14
2018-12-25T10:52:01.984Z,7.08
2018-12-25T10:53:02.012Z,7.11
2018-12-25T10:54:02.040Z,7.11
2018-12-25T10:55:02.071Z,7.14
2018-12-25T10:56:02.099Z,7.19
2018-12-25T10:57:02.131Z,7.23
2018-12-25T10:58:02.157Z,7.23
2018-12-25T10:59:02.188Z,7.24
2018-12-25T11:00:02.217Z,7.21
2018-12-25T11:01:02.250Z,7.23
2018-12-25T11:02:02.277Z,7.24
2018-12-25T11:03:02.309Z,7.23
2018-12-25T11:04:02.336Z,7.34
2018-12-25T11:05:02.365Z,7.37
2018-12-25T11:06:02.394Z,7.44
2018-12-25T11:07:02.425Z,7.41
2018-12-25T11:08:02.454Z,7.41
2018-12-25T11:09:02.491Z,7.54
2018-12-25T11:10:02.513Z,7.54
2018-12-25T11:11:02.542Z,7.58
2018-12-25T11:12:02.574Z,7.70
2018-12-25T11:13:02.607Z,7.67
2018-12-25T11:14:02.631Z,7.63
2018-12-25T11:15:02.661Z,7.71
2018-12-25T11:16:02.691Z,7.76
2018-12-25T11:17:02.723Z,7.76
2018-12-25T11:18:02.749Z,7.73
2018-12-25T11:19:02.781Z,7.76
2018-12-25T11:20:11.144Z,7.74
2018-12-25T11:21:02.839Z,7.79
2018-12-25T11:22:02.868Z,7.79
2018-12-25T11:23:02.900Z,7.74
2018-12-25T11:24:02.930Z,7.76
2018-12-25T11:25:02.958Z,7.74
2018-12-25T11:26:02.989Z,7.79
2018-12-25T11:27:03.018Z,7.79
2018-12-25T11:28:03.048Z,7.71
2018-12-25T11:29:03.088Z,7.76
2018-12-25T11:30:03.107Z,7.74
2018-12-25T11:31:03.187Z,7.76
2018-12-25T11:32:03.168Z,7.84
2018-12-25T11:33:03.199Z,7.70
2018-12-25T11:34:03.230Z,7.76
2018-12-25T11:35:03.262Z,7.77
2018-12-25T11:36:03.288Z,7.74
2018-12-25T11:37:03.317Z,7.74
2018-12-25T11:38:03.346Z,7.71
2018-12-25T11:39:03.377Z,7.74
2018-12-25T11:40:03.405Z,7.77
2018-12-25T11:41:03.437Z,7.69
2018-12-25T11:42:03.471Z,7.66
2018-12-25T11:43:03.497Z,7.63
2018-12-25T11:44:03.526Z,7.70
2018-12-25T11:45:03.556Z,7.69
2018-12-25T11:46:03.584Z,7.67
2018-12-25T11:47:03.615Z,7.69
2018-12-25T11:48:03.646Z,7.69
2018-12-25T11:49:03.676Z,7.71
2018-12-25T11:50:03.706Z,7.73
2018-12-25T11:51:03.736Z,7.76
2018-12-25T11:52:03.767Z,7.79
2018-12-25T11:53:03.834Z,7.81
2018-12-25T11:54:03.824Z,7.76
2018-12-25T11:55:03.856Z,7.81
2018-12-25T11:56:03.888Z,7.82
2018-12-25T11:57:03.917Z,7.82
2018-12-25T11:58:03.945Z,7.81
2018-12-25T11:59:03.976Z,7.88
2018-12-25T12:00:04.004Z,7.84
2018-12-25T12:01:04.035Z,7.85
2018-12-25T12:02:04.076Z,7.77
2018-12-25T12:03:04.094Z,7.79
2018-12-25T12:04:04.124Z,7.79
2018-12-25T12:05:04.156Z,7.74
2018-12-25T12:06:04.184Z,7.76
2018-12-25T12:07:04.310Z,7.74
2018-12-25T12:08:04.243Z,7.70
2018-12-25T12:09:04.278Z,7.66
2018-12-25T12:10:04.304Z,7.73
2018-12-25T12:11:04.336Z,7.79
2018-12-25T12:12:04.365Z,7.79
2018-12-25T12:13:04.396Z,7.69
2018-12-25T12:14:04.423Z,7.71
2018-12-25T12:15:04.456Z,7.62
2018-12-25T12:16:04.486Z,7.73
2018-12-25T12:17:04.518Z,7.74
2018-12-25T12:18:04.544Z,7.76
2018-12-25T12:19:04.575Z,7.74
2018-12-25T12:20:04.604Z,7.76
2018-12-25T12:21:04.634Z,7.76
2018-12-25T12:22:04.663Z,7.74
2018-12-25T12:23:04.694Z,7.77
2018-12-25T12:24:04.724Z,7.76
2018-12-25T12:25:04.754Z,7.74
2018-12-25T12:26:04.786Z,7.73
2018-12-25T12:27:04.813Z,7.77
2018-12-25T12:28:04.850Z,7.79
2018-12-25T12:29:04.876Z,7.76
2018-12-25T12:30:04.903Z,7.74
2018-12-25T12:31:04.934Z,7.79
2018-12-25T12:32:04.964Z,7.79
2018-12-25T12:33:04.994Z,7.74
2018-12-25T12:34:05.027Z,7.66
2018-12-25T12:35:05.054Z,7.66
2018-12-25T12:36:05.083Z,7.66
2018-12-25T12:37:05.114Z,7.73
2018-12-25T12:38:05.142Z,7.69
2018-12-25T12:39:05.174Z,7.70
2018-12-25T12:40:05.202Z,7.69
2018-12-25T12:41:05.236Z,7.71
2018-12-25T12:42:05.263Z,7.70
2018-12-25T12:43:05.293Z,7.73
2018-12-25T12:44:05.325Z,7.67
2018-12-25T12:45:05.352Z,7.71
2018-12-25T12:46:06.993Z,7.77
2018-12-25T12:47:05.412Z,7.77
2018-12-25T12:48:05.443Z,7.76
2018-12-25T12:49:05.473Z,7.73
2018-12-25T12:50:05.503Z,7.71
2018-12-25T12:51:05.531Z,7.63
2018-12-25T12:52:05.562Z,7.63
2018-12-25T12:53:05.594Z,7.73
2018-12-25T12:54:05.622Z,7.60
2018-12-25T12:55:05.653Z,7.69
2018-12-25T12:56:05.683Z,7.71
2018-12-25T12:57:05.714Z,7.60
2018-12-25T12:58:05.742Z,7.55
2018-12-25T12:59:05.771Z,7.55
2018-12-25T13:00:05.800Z,7.57
2018-12-25T13:01:05.832Z,7.58
2018-12-25T13:02:05.862Z,7.48
2018-12-25T13:03:05.895Z,7.41
2018-12-25T13:04:05.920Z,7.48
2018-12-25T13:05:05.952Z,7.41
2018-12-25T13:06:05.980Z,7.42
2018-12-25T13:07:06.010Z,7.36
2018-12-25T13:08:06.046Z,7.54
2018-12-25T13:09:06.073Z,7.44
2018-12-25T13:10:06.099Z,7.52
2018-12-25T13:11:06.129Z,7.44
2018-12-25T13:12:06.160Z,7.42
2018-12-25T13:13:06.189Z,7.44
2018-12-25T13:14:06.220Z,7.41
2018-12-25T13:15:06.252Z,7.36
2018-12-25T13:16:06.279Z,7.37
2018-12-25T13:17:06.310Z,7.37
2018-12-25T13:18:06.338Z,7.37
2018-12-25T13:19:06.369Z,7.44